Bookmark and Share
Track history (hours):
 

Vingaren

Last reported at 2014-Apr-22 16:28 UTC. Time now 2014-Apr-24 14:01 UTC.
Position N 50°33' E 000°08'.

Length 89 m; draft 6.4 m.

Type: Cargo ship. MMSI: 231844000.

NotesDate/timePositionNaut miles runAvg speedWind from/ knotsBaromVisibWave heightAir tempDewpointWater temp
2014-Apr-22 16:28N 50°33' E 000°08'8 8.7
2014-Apr-22 15:33N 50°35' E 000°20'8 8.0
2014-Apr-22 14:33N 50°37' E 000°32'8 7.8
2014-Apr-22 13:33N 50°41' E 000°42'9 8.5
2014-Apr-22 12:33N 50°46' E 000°53'9 9.5
2014-Apr-22 11:33N 50°52' E 001°05'1010.1
2014-Apr-22 10:33N 50°59' E 001°17'10 9.8
2014-Apr-22 09:34N 51°05' E 001°29'8 8.3
2014-Apr-22 08:33N 51°10' E 001°40'7 7.4
2014-Apr-22 07:33N 51°16' E 001°48'7 6.9
2014-Apr-22 06:33N 51°22' E 001°53'7 6.9
2014-Apr-22 05:33N 51°28' E 001°59'8 7.5
2014-Apr-22 04:33N 51°34' E 002°06'8 8.4
2014-Apr-22 03:33N 51°40' E 002°15'142 9.2
2014-Apr-21 12:04N 53°30' E 004°43'4 8.7
2014-Apr-21 11:33N 53°31' E 004°50'8 8.3
2014-Apr-21 10:33N 53°34' E 005°03'8 8.2
2014-Apr-21 09:33N 53°37' E 005°16'8 8.4
2014-Apr-21 08:34N 53°39' E 005°29'9 9.3
2014-Apr-21 07:33N 53°42' E 005°44'1110.9
2014-Apr-21 06:33N 53°46' E 006°01'1110.5
2014-Apr-21 05:29N 53°50' E 006°19'2010.2
2014-Apr-21 03:30N 53°54' E 006°53'9 9.4
2014-Apr-21 02:33N 53°57' E 007°07'9 8.7
2014-Apr-21 01:33N 53°58' E 007°22'8 8.2
2014-Apr-21 00:33N 54°00' E 007°35'8 8.3
2014-Apr-20 23:33N 54°01' E 007°49'8 8.4
2014-Apr-20 22:34N 54°01' E 008°03'10 9.8
2014-Apr-20 21:33N 53°60' E 008°20'1212.2
2014-Apr-20 20:33N 53°56' E 008°40'1211.9
2014-Apr-20 19:33N 53°51' E 008°58'7 7.1
2014-Apr-20 18:33N 53°54' E 009°09'8 7.9
2014-Apr-20 17:33N 53°60' E 009°18'8 8.3
2014-Apr-20 16:33N 54°08' E 009°20'7 7.4
2014-Apr-20 15:32N 54°11' E 009°32'57 6.8
2014-Apr-20 07:10N 54°36' E 010°59'6 9.0
2014-Apr-20 06:32N 54°36' E 011°09'9 9.4
2014-Apr-20 05:33N 54°32' E 011°24'9 9.2
2014-Apr-20 04:33N 54°29' E 011°38'9 9.3
2014-Apr-20 03:33N 54°26' E 011°54'9 9.3
2014-Apr-20 02:33N 54°28' E 012°10'9 8.9
2014-Apr-20 01:33N 54°36' E 012°15'9 9.2
2014-Apr-20 00:33N 54°42' E 012°28'9 8.6
2014-Apr-19 23:33N 54°46' E 012°40'9 8.9
2014-Apr-19 22:33N 54°50' E 012°54'9 9.2
2014-Apr-19 21:33N 54°53' E 013°09'10 9.5
2014-Apr-19 20:33N 54°56' E 013°25'9 9.2
2014-Apr-19 19:33N 54°59' E 013°40'9 9.2
2014-Apr-19 18:33N 55°03' E 013°55'9 8.8
2014-Apr-19 17:33N 55°08' E 014°07'9 9.0
2014-Apr-19 16:33N 55°14' E 014°18'9 9.1
2014-Apr-19 15:33N 55°21' E 014°29'9 9.1
2014-Apr-19 14:33N 55°28' E 014°40'9 9.2
2014-Apr-19 13:33N 55°32' E 014°54'9 9.3
2014-Apr-19 12:33N 55°37' E 015°09'9 9.3
2014-Apr-19 11:33N 55°41' E 015°23'10 9.1
2014-Apr-19 10:27N 55°46' E 015°39'8 9.1
2014-Apr-19 09:33N 55°50' E 015°51'9 9.2
2014-Apr-19 08:33N 55°55' E 016°05'9 9.3
2014-Apr-19 07:33N 56°00' E 016°19'312 8.0
2014-Apr-17 16:24N 59°38' E 023°18'7 8.4
2014-Apr-17 15:32N 59°39' E 023°32'8 8.3
2014-Apr-17 14:33N 59°42' E 023°47'9 8.5
2014-Apr-17 13:32N 59°44' E 024°04'17 8.4
2014-Apr-17 11:33N 59°48' E 024°36'53 8.5
2014-Apr-17 05:21N 59°60' E 026°19'7 9.0
2014-Apr-17 04:32N 60°02' E 026°33'27 8.5
2014-Apr-17 01:20N 60°07' E 027°27'83 8.5
2014-Apr-16 15:33N 59°53' E 030°11'2 0.1
2014-Apr-15 17:25N 59°53' E 030°14'  
2014-Apr-12 22:33N 59°47' E 025°01'8 8.1
2014-Apr-12 21:33N 59°46' E 024°46'9 8.2
2014-Apr-12 20:31N 59°44' E 024°29'  

Dump ship's entire track history

sailing weather and tide predictions

Vingaren — OZ2131 — position and weather